Time;durP1;ratioP1;P1;durP2;ratioP2;P2;SDS_P1;SDS_P2;PMS_P1;PMS_P2;Temp;Humidity;BMP_temperature;BMP_pressure;BME280_temperature;BME280_humidity;BME280_pressure;Samples;Min_cycle;Max_cycle;Signal;HPM_P1;HPM_P2
2021/12/13 00:01:59;;;;;;;16.00;8.98;;;;;;;3.35;91.25;100934.09;5065103;28;20059;-69
2021/12/13 00:04:33;;;;;;;13.75;7.85;;;;;;;3.42;90.85;100934.66;5057947;28;20020;-69
2021/12/13 00:07:15;;;;;;;14.27;8.60;;;;;;;3.45;90.23;100932.72;5063285;28;20050;-69
2021/12/13 00:09:44;;;;;;;14.43;7.57;;;;;;;3.51;89.35;100939.53;5062687;28;20032;-67
2021/12/13 00:12:11;;;;;;;18.65;8.88;;;;;;;3.59;88.35;100942.66;5060362;28;20468;-69
2021/12/13 00:14:49;;;;;;;16.35;8.73;;;;;;;3.59;88.16;100943.53;5057598;28;20056;-69
2021/12/13 00:17:23;;;;;;;18.77;9.55;;;;;;;3.64;87.37;100945.94;5065577;28;20060;-68
2021/12/13 00:19:58;;;;;;;18.45;9.93;;;;;;;3.61;86.51;100932.84;5058993;28;20033;-68
2021/12/13 00:22:32;;;;;;;21.08;10.98;;;;;;;3.66;85.87;100950.22;5060186;28;20691;-68
2021/12/13 00:25:01;;;;;;;;;;;;;;;3.69;85.51;100954.53;5058203;28;20051;-69
2021/12/13 00:27:29;;;;;;;24.95;11.68;;;;;;;3.69;85.27;100954.53;5055125;28;20345;-68
2021/12/13 00:30:16;;;;;;;24.67;11.70;;;;;;;3.72;85.43;100957.03;5062811;28;20104;-68
2021/12/13 00:33:00;;;;;;;21.27;11.95;;;;;;;3.72;85.71;100965.84;5067751;28;20032;-69
2021/12/13 00:35:35;;;;;;;21.30;10.60;;;;;;;3.73;85.93;100962.25;5058795;28;20113;-69
2021/12/13 00:38:04;;;;;;;18.58;10.70;;;;;;;3.73;86.48;100978.16;5063534;28;20498;-69
2021/12/13 00:40:37;;;;;;;19.17;10.13;;;;;;;3.72;86.74;100970.28;5066854;28;20033;-69
2021/12/13 00:43:08;;;;;;;17.80;10.98;;;;;;;3.74;86.42;100977.22;5058881;28;20544;-70
2021/12/13 00:45:39;;;;;;;19.98;10.55;;;;;;;3.70;86.42;100980.97;5066700;28;20033;-69
2021/12/13 00:48:07;;;;;;;19.63;10.07;;;;;;;3.72;86.55;100988.84;5064754;28;20094;-69
2021/12/13 00:50:32;;;;;;;21.20;11.20;;;;;;;3.73;86.52;100998.50;5063601;28;20478;-69
2021/12/13 00:52:59;;;;;;;21.70;11.95;;;;;;;3.69;86.18;100981.91;5057928;28;20111;-66
2021/12/13 00:55:31;;;;;;;25.27;13.55;;;;;;;3.68;86.11;100976.69;5056287;28;20032;-65
2021/12/13 00:58:10;;;;;;;20.10;11.77;;;;;;;3.58;86.65;100965.66;5059030;28;20024;-66
2021/12/13 01:00:38;;;;;;;22.50;12.25;;;;;;;3.62;86.98;100985.81;5054239;28;20040;-66
2021/12/13 01:03:13;;;;;;;21.52;11.55;;;;;;;3.61;86.83;100986.72;5049665;28;20033;-65
2021/12/13 01:06:00;;;;;;;16.80;10.93;;;;;;;3.62;86.65;100990.25;5070078;28;20467;-64
2021/12/13 01:08:47;;;;;;;21.83;11.50;;;;;;;3.60;85.83;101000.91;5053196;28;20041;-66
2021/12/13 01:11:48;;;;;;;17.33;10.23;;;;;;;3.59;85.86;100993.03;5058935;28;20980;-66
2021/12/13 01:14:30;;;;;;;19.08;9.70;;;;;;;3.59;85.59;100993.03;5022393;28;20471;-65
2021/12/13 01:17:12;;;;;;;16.85;9.85;;;;;;;3.53;85.64;100990.69;5056646;28;20052;-66
2021/12/13 01:19:58;;;;;;;20.05;11.15;;;;;;;3.66;83.23;100997.09;5067213;28;20033;-66
2021/12/13 01:26:03;;;;;;;18.17;10.27;;;;;;;3.55;82.12;100980.88;5050396;28;20098;-65
2021/12/13 01:28:39;;;;;;;18.92;11.05;;;;;;;3.59;80.56;100993.03;5047394;28;20468;-65
2021/12/13 01:31:09;;;;;;;18.30;10.63;;;;;;;3.59;79.42;100982.44;5050617;28;20032;-66
2021/12/13 01:33:40;;;;;;;21.15;11.13;;;;;;;3.52;79.10;100979.19;5050190;28;20029;-66
2021/12/13 01:36:08;;;;;;;18.38;9.90;;;;;;;3.49;79.61;100979.38;5052443;28;20070;-66
2021/12/13 01:38:45;;;;;;;21.15;10.13;;;;;;;3.47;79.82;100985.66;5053291;28;20644;-66
2021/12/13 01:41:15;;;;;;;18.60;10.90;;;;;;;3.41;81.60;100991.25;5061653;28;20107;-65
2021/12/13 01:43:45;;;;;;;22.73;10.52;;;;;;;3.37;82.37;100995.88;5070165;28;20024;-65
2021/12/13 01:46:11;;;;;;;22.05;11.90;;;;;;;3.37;81.48;100990.56;5066745;28;20025;-66
2021/12/13 01:48:41;;;;;;;18.85;10.98;;;;;;;3.30;80.93;100983.84;5050058;28;20086;-66
2021/12/13 01:51:11;;;;;;;19.98;11.02;;;;;;;3.32;81.29;101000.50;5066366;28;20036;-66
2021/12/13 01:53:58;;;;;;;19.13;10.80;;;;;;;3.30;80.26;100991.78;5059637;28;20036;-66
2021/12/13 01:56:56;;;;;;;23.30;11.20;;;;;;;3.32;81.47;101007.63;5060034;28;20436;-67
2021/12/13 02:02:21;;;;;;;18.52;10.85;;;;;;;3.26;79.56;101015.88;5053178;28;20029;-66
2021/12/13 02:05:01;;;;;;;21.10;12.25;;;;;;;3.20;80.58;101008.19;5063219;28;20503;-66
2021/12/13 02:07:35;;;;;;;22.98;12.45;;;;;;;3.23;81.42;101018.66;5070072;28;20028;-66
2021/12/13 02:10:00;;;;;;;22.75;12.63;;;;;;;3.23;82.00;101023.94;5065246;28;20502;-67
2021/12/13 02:12:29;;;;;;;21.25;12.15;;;;;;;3.18;81.74;101020.66;5054359;28;20036;-66
2021/12/13 02:17:43;;;;;;;21.95;12.32;;;;;;;3.12;81.82;101016.50;5062737;28;20157;-66
2021/12/13 02:20:29;;;;;;;24.15;11.45;;;;;;;3.13;82.07;101023.50;5070195;28;20468;-67
2021/12/13 02:22:56;;;;;;;18.77;10.68;;;;;;;3.23;81.03;101040.72;5056964;28;20087;-66
2021/12/13 02:25:58;;;;;;;23.90;11.82;;;;;;;3.20;81.25;101035.56;5051734;28;20083;-66
2021/12/13 02:28:30;;;;;;;19.02;10.70;;;;;;;3.21;81.21;101037.28;5057147;28;20044;-66
2021/12/13 02:31:02;;;;;;;24.10;11.15;;;;;;;3.12;81.47;101037.69;5050010;28;20036;-67
2021/12/13 02:33:35;;;;;;;21.17;11.02;;;;;;;3.11;81.99;101035.97;5050704;28;20029;-66
2021/12/13 02:36:08;;;;;;;25.45;11.88;;;;;;;3.05;82.16;101016.84;5065855;28;20037;-64
2021/12/13 02:38:35;;;;;;;25.60;11.80;;;;;;;3.06;83.11;101034.47;5067198;28;20024;-66
2021/12/13 02:41:01;;;;;;;23.10;10.93;;;;;;;2.97;83.41;101025.13;5053314;28;20395;-67
2021/12/13 02:43:32;;;;;;;24.65;11.63;;;;;;;2.92;84.51;101015.69;5068322;28;20051;-65
2021/12/13 02:45:59;;;;;;;18.10;10.63;;;;;;;2.89;85.14;101002.56;5070721;28;20020;-65
2021/12/13 02:48:35;;;;;;;23.80;12.20;;;;;;;2.93;85.88;101023.56;5065982;28;20051;-66
2021/12/13 02:51:10;;;;;;;21.00;11.52;;;;;;;2.92;87.17;101013.03;5057899;28;20029;-65
2021/12/13 02:53:52;;;;;;;21.98;11.85;;;;;;;2.92;87.83;101013.03;5070916;28;20116;-66
2021/12/13 02:56:21;;;;;;;25.15;11.63;;;;;;;2.88;87.01;101020.28;5070836;28;20035;-66
2021/12/13 02:58:50;;;;;;;23.63;12.35;;;;;;;2.84;87.35;101013.38;5065738;28;20025;-65
2021/12/13 03:01:23;;;;;;;24.10;11.05;;;;;;;2.89;88.89;101029.06;5058425;28;20060;-66
2021/12/13 03:03:54;;;;;;;22.20;12.50;;;;;;;2.88;89.53;101022.06;5064414;28;20033;-66
2021/12/13 03:06:26;;;;;;;20.92;11.88;;;;;;;2.88;89.07;101022.94;5060847;28;20039;-66
2021/12/13 03:09:16;;;;;;;22.70;12.27;;;;;;;2.89;88.38;101019.34;5073181;28;20356;-66
2021/12/13 03:11:44;;;;;;;20.52;11.52;;;;;;;2.90;88.90;101020.22;5069837;28;20084;-65
2021/12/13 03:14:18;;;;;;;20.45;11.45;;;;;;;2.91;88.24;101012.19;5054522;28;20021;-65
2021/12/13 03:16:55;;;;;;;19.33;10.82;;;;;;;2.89;87.64;101015.81;5064366;28;20021;-66
2021/12/13 03:19:42;;;;;;;24.00;10.98;;;;;;;2.89;86.81;101011.38;5060768;28;20059;-67
2021/12/13 03:22:45;;;;;;;21.85;11.68;;;;;;;2.91;86.78;101022.78;5053125;28;20487;-67
2021/12/13 03:25:25;;;;;;;21.33;11.80;;;;;;;2.87;87.66;101001.81;5062738;28;20053;-66
2021/12/13 03:28:03;;;;;;;21.30;11.07;;;;;;;2.91;88.29;101020.16;5065495;28;20072;-66
2021/12/13 03:30:49;;;;;;;20.15;11.40;;;;;;;2.88;88.03;101008.81;5064530;28;20451;-65
2021/12/13 03:33:18;;;;;;;19.20;11.38;;;;;;;2.88;87.84;101014.09;5063126;28;20110;-66
2021/12/13 03:35:56;;;;;;;20.70;11.30;;;;;;;2.82;88.42;100998.50;5051837;28;20033;-66
2021/12/13 03:38:36;;;;;;;19.85;11.65;;;;;;;2.87;87.21;101009.75;5051256;28;20044;-66
2021/12/13 03:41:06;;;;;;;21.60;12.63;;;;;;;2.87;86.70;101013.25;5049266;28;20039;-66
2021/12/13 03:43:43;;;;;;;21.95;12.00;;;;;;;2.85;87.58;101012.47;5052056;28;20025;-65
2021/12/13 03:46:12;;;;;;;20.23;11.98;;;;;;;2.76;87.87;100988.16;5050847;28;20067;-66
2021/12/13 03:48:40;;;;;;;21.45;12.05;;;;;;;2.87;88.00;101013.25;5051625;28;21549;-66
2021/12/13 03:51:17;;;;;;;25.65;13.88;;;;;;;2.82;88.16;101011.72;5052261;28;20036;-65
2021/12/13 03:53:45;;;;;;;22.08;12.75;;;;;;;2.91;87.67;101025.44;5052090;28;20040;-66
2021/12/13 03:56:15;;;;;;;27.15;13.52;;;;;;;2.85;88.10;101014.25;5051865;28;20040;-66
2021/12/13 03:58:47;;;;;;;25.00;13.98;;;;;;;2.87;88.41;101036.25;5050207;28;20031;-66
2021/12/13 04:01:14;;;;;;;26.58;14.55;;;;;;;2.90;88.70;101041.41;5051474;28;20025;-66
2021/12/13 04:03:41;;;;;;;27.42;14.50;;;;;;;2.87;88.77;101044.19;5050728;28;20439;-66
2021/12/13 04:06:07;;;;;;;27.63;14.60;;;;;;;2.82;89.63;101027.63;5051082;28;20044;-66
2021/12/13 04:08:34;;;;;;;26.90;14.38;;;;;;;2.78;89.97;101028.69;5052833;28;20025;-65
2021/12/13 04:11:06;;;;;;;27.92;14.60;;;;;;;2.83;90.46;101042.59;5052592;28;20035;-66
2021/12/13 04:13:38;;;;;;;28.25;15.35;;;;;;;2.82;90.63;101048.81;5049817;28;20033;-66
2021/12/13 04:16:32;;;;;;;29.27;15.35;;;;;;;2.81;91.41;101034.72;5050760;28;20036;-66
2021/12/13 04:21:35;;;;;;;23.65;13.50;;;;;;;2.85;90.00;101049.56;5051016;28;20032;-65
2021/12/13 04:24:08;;;;;;;26.50;14.40;;;;;;;2.82;89.15;101048.81;5055455;28;20036;-65
2021/12/13 04:26:41;;;;;;;23.92;13.45;;;;;;;2.82;88.71;101056.75;5051470;28;20041;-66
2021/12/13 04:29:14;;;;;;;25.67;13.90;;;;;;;2.77;89.10;101054.31;5051110;28;20037;-66
2021/12/13 04:31:41;;;;;;;25.73;12.63;;;;;;;2.79;88.84;101062.19;5051666;28;20068;-66
2021/12/13 04:34:06;;;;;;;19.92;11.75;;;;;;;2.79;88.56;101071.00;5051451;28;20112;-66
2021/12/13 04:36:40;;;;;;;23.20;13.38;;;;;;;2.78;88.54;101071.94;5059259;28;20403;-65
2021/12/13 04:39:06;;;;;;;;;;;;;;;2.78;88.31;101071.94;5057139;28;20044;-66
2021/12/13 04:41:35;;;;;;;24.38;11.85;;;;;;;2.78;88.71;101077.25;5064586;28;20418;-67
2021/12/13 04:44:12;;;;;;;23.10;12.98;;;;;;;2.72;89.41;101079.28;5059432;28;20028;-66
2021/12/13 04:46:40;;;;;;;24.67;12.52;;;;;;;2.68;90.45;101083.00;5066681;28;20550;-65
2021/12/13 04:49:17;;;;;;;25.70;13.65;;;;;;;2.67;90.71;101073.34;5071393;28;20079;-65
2021/12/13 04:52:07;;;;;;;25.10;12.65;;;;;;;2.66;90.80;101079.53;5071192;28;20107;-65
2021/12/13 04:54:36;;;;;;;24.45;13.60;;;;;;;2.65;90.75;101075.19;5070714;28;20037;-67
2021/12/13 04:57:02;;;;;;;25.38;12.82;;;;;;;2.61;91.42;101085.03;5063713;28;20025;-65
2021/12/13 04:59:29;;;;;;;21.92;13.45;;;;;;;2.59;92.03;101078.09;5059042;28;20024;-65
2021/12/13 05:01:59;;;;;;;25.83;14.07;;;;;;;2.55;93.12;101074.75;5060636;28;20028;-66
2021/12/13 05:04:29;;;;;;;20.27;11.98;;;;;;;2.61;93.36;101086.84;5048483;28;20442;-66
2021/12/13 05:06:58;;;;;;;24.25;12.77;;;;;;;2.61;93.16;101066.50;5053062;28;20078;-67
2021/12/13 05:09:25;;;;;;;23.70;13.35;;;;;;;2.59;92.90;101062.22;5060856;28;20033;-66
2021/12/13 05:12:07;;;;;;;24.73;13.13;;;;;;;2.62;93.16;101068.25;5055126;28;20403;-65
2021/12/13 05:14:41;;;;;;;24.98;13.18;;;;;;;2.63;93.00;101063.78;5057975;28;20032;-66
2021/12/13 05:17:13;;;;;;;27.60;12.48;;;;;;;2.64;92.18;101076.97;5056588;28;20079;-66
2021/12/13 05:19:46;;;;;;;22.50;12.70;;;;;;;2.65;92.33;101077.84;5050844;28;20032;-66
2021/12/13 05:22:15;;;;;;;26.30;13.63;;;;;;;2.61;93.04;101066.50;5056637;28;20475;-67
2021/12/13 05:24:55;;;;;;;27.88;14.13;;;;;;;2.63;92.94;101077.91;5057349;28;20136;-66
2021/12/13 05:27:31;;;;;;;23.50;13.52;;;;;;;2.59;92.80;101055.13;5054095;28;20534;-66
2021/12/13 05:30:15;;;;;;;25.15;13.63;;;;;;;2.59;91.92;101071.03;5052682;28;20078;-66
2021/12/13 05:32:45;;;;;;;26.60;13.10;;;;;;;2.58;91.53;101073.75;5060068;28;20122;-66
2021/12/13 05:35:34;;;;;;;24.85;13.20;;;;;;;2.55;91.31;101071.22;5063600;28;20105;-67
2021/12/13 05:38:06;;;;;;;26.52;13.30;;;;;;;2.47;90.87;101060.09;5053059;28;20473;-66
2021/12/13 05:40:39;;;;;;;23.65;13.50;;;;;;;2.46;90.53;101087.50;5060059;28;20421;-66
2021/12/13 05:43:31;;;;;;;22.47;12.80;;;;;;;2.43;89.54;101086.69;5068817;28;20035;-66
2021/12/13 05:46:04;;;;;;;22.75;13.52;;;;;;;2.38;88.22;101085.16;5067050;28;20354;-66
2021/12/13 05:48:42;;;;;;;30.95;13.32;;;;;;;2.30;89.29;101090.78;5062696;28;20066;-66
2021/12/13 05:51:30;;;;;;;25.08;13.88;;;;;;;2.25;89.05;101106.00;5062234;28;20025;-65
2021/12/13 05:54:07;;;;;;;26.08;14.05;;;;;;;2.16;88.80;101109.00;5046926;28;20120;-66
2021/12/13 05:56:46;;;;;;;27.98;14.40;;;;;;;2.10;88.17;101114.56;5048324;28;20380;-65
2021/12/13 05:59:20;;;;;;;27.92;13.93;;;;;;;2.02;87.80;101103.44;5052766;28;20052;-66
2021/12/13 06:02:03;;;;;;;29.30;16.00;;;;;;;1.95;88.02;101099.31;5049932;28;20472;-65
2021/12/13 06:04:40;;;;;;;29.57;15.73;;;;;;;1.88;88.38;101118.13;5065704;28;20028;-65
2021/12/13 06:07:17;;;;;;;29.40;16.15;;;;;;;1.84;88.98;101116.53;5053574;28;20039;-66
2021/12/13 06:09:48;;;;;;;30.00;15.85;;;;;;;1.79;88.82;101122.00;5048795;28;20033;-65
2021/12/13 06:12:43;;;;;;;28.92;15.52;;;;;;;1.73;88.63;101121.38;5059531;28;20036;-65
2021/12/13 06:15:15;;;;;;;32.85;16.65;;;;;;;1.66;89.53;101130.47;5054769;28;20499;-66
2021/12/13 06:17:44;;;;;;;32.03;15.73;;;;;;;1.61;89.42;101124.50;5065747;28;20108;-65
2021/12/13 06:20:15;;;;;;;32.28;16.98;;;;;;;1.58;89.24;101133.41;5054554;28;20112;-66
2021/12/13 06:22:41;;;;;;;31.00;15.63;;;;;;;1.46;89.00;101122.44;5074136;28;20036;-66
2021/12/13 06:25:06;;;;;;;27.38;16.40;;;;;;;1.48;88.54;101120.63;5056654;28;20056;-66
2021/12/13 06:27:44;;;;;;;29.45;16.52;;;;;;;1.42;88.75;101121.69;5070312;28;20032;-64
2021/12/13 06:30:18;;;;;;;29.08;15.60;;;;;;;1.37;89.28;101128.06;5072865;28;20040;-65
2021/12/13 06:32:49;;;;;;;;;;;;;;;1.28;89.92;101129.28;5056589;28;20141;-65
2021/12/13 06:35:29;;;;;;;28.27;16.30;;;;;;;1.28;89.67;101129.28;5053905;28;19917;-65
2021/12/13 06:37:56;;;;;;;31.20;15.38;;;;;;;1.23;89.89;101136.50;5073147;28;20024;-64
2021/12/13 06:40:27;;;;;;;32.58;16.20;;;;;;;1.17;90.42;101139.38;5073628;28;20043;-65
2021/12/13 06:43:01;;;;;;;33.53;16.65;;;;;;;1.11;90.81;101141.38;5059347;28;20024;-65
2021/12/13 06:45:30;;;;;;;;;;;;;;;1.07;91.21;101135.38;5055078;28;20029;-65
2021/12/13 06:47:57;;;;;;;31.73;14.82;;;;;;;0.96;91.37;101137.50;5057859;28;19973;-65
2021/12/13 06:50:37;;;;;;;26.38;15.45;;;;;;;0.98;91.61;101148.88;5056734;28;20024;-65
2021/12/13 06:53:13;;;;;;;35.53;16.85;;;;;;;1.02;90.23;101145.22;5073396;28;20032;-65
2021/12/13 06:55:38;;;;;;;31.58;15.98;;;;;;;0.91;90.87;101141.22;5072040;28;20063;-65
2021/12/13 06:58:17;;;;;;;32.10;16.38;;;;;;;0.87;91.35;101147.53;5060109;28;20402;-65
2021/12/13 07:00:44;;;;;;;32.00;17.05;;;;;;;0.90;91.43;101158.84;5053342;28;20025;-65
2021/12/13 07:03:16;;;;;;;36.00;17.45;;;;;;;0.86;90.90;101151.94;5052159;28;20144;-65
2021/12/13 07:05:44;;;;;;;36.50;18.15;;;;;;;0.80;91.39;101149.53;5053127;28;20024;-65
2021/12/13 07:08:16;;;;;;;35.70;18.75;;;;;;;0.72;91.38;101153.34;5057836;28;20056;-65
2021/12/13 07:10:58;;;;;;;35.25;19.10;;;;;;;0.78;91.84;101179.53;5071842;28;20032;-65
2021/12/13 07:13:32;;;;;;;38.40;18.90;;;;;;;0.68;92.05;101186.03;5071521;28;20024;-65
2021/12/13 07:16:12;;;;;;;39.45;20.42;;;;;;;0.77;91.47;101178.66;5069327;28;20116;-65
2021/12/13 07:18:48;;;;;;;38.45;19.85;;;;;;;0.71;91.62;101175.38;5071465;28;20533;-65
2021/12/13 07:21:16;;;;;;;33.53;18.42;;;;;;;0.62;92.11;101170.41;5065470;28;20713;-65
2021/12/13 07:24:08;;;;;;;34.72;19.42;;;;;;;0.61;92.62;101163.41;5071559;28;20040;-66
2021/12/13 07:26:49;;;;;;;33.72;17.60;;;;;;;0.57;92.77;101165.28;5054080;28;20446;-65
2021/12/13 07:29:22;;;;;;;38.80;18.65;;;;;;;0.55;93.17;101167.09;5057241;28;20044;-65
2021/12/13 07:32:18;;;;;;;33.85;18.42;;;;;;;0.56;93.32;101174.13;5071055;28;20027;-65
2021/12/13 07:35:05;;;;;;;36.20;18.30;;;;;;;0.57;92.23;101170.56;5071406;28;20059;-65
2021/12/13 07:38:00;;;;;;;37.22;19.23;;;;;;;0.54;92.71;101186.50;5059350;28;20064;-65
2021/12/13 07:40:26;;;;;;;36.20;17.50;;;;;;;0.59;93.07;101189.88;5072279;28;20041;-65
2021/12/13 07:42:57;;;;;;;35.38;17.00;;;;;;;0.52;93.21;101182.19;5051817;28;20039;-65
2021/12/13 07:45:46;;;;;;;30.48;16.77;;;;;;;0.55;93.66;101195.28;5051032;28;20040;-64
2021/12/13 07:48:20;;;;;;;37.25;17.75;;;;;;;0.64;92.74;101202.91;5059959;28;20469;-65
2021/12/13 07:51:01;;;;;;;31.88;17.13;;;;;;;0.58;92.87;101188.13;5072569;28;20035;-65
2021/12/13 07:53:28;;;;;;;32.50;16.95;;;;;;;0.67;93.15;101194.88;5064593;28;20047;-66
2021/12/13 07:55:54;;;;;;;39.17;18.65;;;;;;;0.73;92.94;101205.22;5069888;28;20090;-64
2021/12/13 07:58:37;;;;;;;33.90;17.40;;;;;;;0.74;92.53;101199.03;5054709;28;20028;-66
2021/12/13 08:01:19;;;;;;;35.28;17.08;;;;;;;0.80;92.44;101202.31;5052399;28;20075;-65
2021/12/13 08:04:08;;;;;;;36.88;16.75;;;;;;;0.79;92.68;101197.97;5051190;28;20025;-64
2021/12/13 08:06:40;;;;;;;35.90;17.35;;;;;;;0.81;92.03;101190.84;5044546;28;20727;-64
2021/12/13 08:09:12;;;;;;;33.30;17.85;;;;;;;0.88;92.37;101199.44;5062287;28;20462;-64
2021/12/13 08:11:55;;;;;;;34.13;17.38;;;;;;;0.89;92.64;101198.50;5051886;28;20384;-65
2021/12/13 08:14:42;;;;;;;28.30;16.23;;;;;;;0.92;92.95;101203.69;5051856;28;20028;-65
2021/12/13 08:17:56;;;;;;;34.17;16.23;;;;;;;0.99;92.83;101205.19;5053180;28;20079;-65
2021/12/13 08:20:36;;;;;;;28.63;15.00;;;;;;;0.99;92.91;101200.78;5068358;28;20552;-65
2021/12/13 08:23:04;;;;;;;34.72;15.75;;;;;;;1.06;92.00;101210.22;5071647;28;20028;-66
2021/12/13 08:25:37;;;;;;;31.23;15.32;;;;;;;1.12;91.16;101215.28;5069957;28;20052;-64
2021/12/13 08:28:06;;;;;;;30.27;14.57;;;;;;;1.18;91.17;101212.44;5070801;28;20485;-65
2021/12/13 08:30:46;;;;;;;30.23;14.52;;;;;;;1.22;90.61;101203.47;5065151;28;20111;-64
2021/12/13 08:33:11;;;;;;;26.23;13.30;;;;;;;1.30;91.05;101206.72;5063961;28;20028;-64
2021/12/13 08:36:01;;;;;;;31.63;14.93;;;;;;;1.42;90.19;101215.97;5071489;28;20070;-64
2021/12/13 08:38:39;;;;;;;26.08;14.65;;;;;;;1.47;89.57;101214.00;5071209;28;20023;-65
2021/12/13 08:41:28;;;;;;;28.15;14.25;;;;;;;1.47;89.56;101214.88;5070768;28;20028;-64
2021/12/13 08:44:05;;;;;;;26.73;14.73;;;;;;;1.56;89.53;101224.25;5048446;28;20039;-64
2021/12/13 08:46:51;;;;;;;28.77;15.57;;;;;;;1.56;89.19;101219.84;5049317;28;20032;-64
2021/12/13 08:49:40;;;;;;;29.00;14.73;;;;;;;1.65;88.29;101218.63;5052075;28;20033;-64
2021/12/13 08:52:14;;;;;;;29.67;13.80;;;;;;;1.68;88.54;101223.81;5048718;28;20032;-65
2021/12/13 08:55:00;;;;;;;26.17;14.25;;;;;;;1.84;87.05;101214.38;5061214;28;20103;-65
2021/12/13 08:57:51;;;;;;;22.38;12.85;;;;;;;1.88;86.69;101210.69;5057497;28;20052;-65
2021/12/13 09:00:44;;;;;;;24.52;13.27;;;;;;;1.92;86.93;101212.31;5062319;28;20024;-66
2021/12/13 09:03:10;;;;;;;28.67;14.73;;;;;;;2.14;84.92;101229.94;5050121;28;20029;-65
2021/12/13 09:05:40;;;;;;;25.20;13.65;;;;;;;1.99;85.43;101212.00;5050354;28;20039;-64
2021/12/13 09:08:08;;;;;;;28.38;14.70;;;;;;;2.06;85.95;101217.91;5052917;28;20488;-67
2021/12/13 09:10:39;;;;;;;29.60;15.32;;;;;;;2.16;85.48;101214.84;5056273;28;20112;-69
2021/12/13 09:13:05;;;;;;;26.05;14.40;;;;;;;2.16;84.87;101214.84;5057720;28;20060;-68
2021/12/13 09:15:34;;;;;;;27.33;15.13;;;;;;;2.20;84.82;101208.50;5065522;28;20028;-68
2021/12/13 09:18:00;;;;;;;27.92;14.35;;;;;;;2.21;84.30;101196.16;5060835;28;20392;-68
2021/12/13 09:20:46;;;;;;;24.60;14.40;;;;;;;2.29;83.59;101215.25;5061264;28;20098;-67
2021/12/13 09:23:19;;;;;;;28.55;14.05;;;;;;;2.28;82.63;101187.03;5059057;28;20049;-68
2021/12/13 09:25:54;;;;;;;25.73;13.65;;;;;;;2.51;81.37;101202.84;5063618;28;20055;-68
2021/12/13 09:28:43;;;;;;;24.73;14.10;;;;;;;2.48;81.83;101199.47;5065848;28;20106;-69
2021/12/13 09:31:14;;;;;;;29.40;14.65;;;;;;;2.52;81.90;101207.25;5067430;28;20520;-69
2021/12/13 09:33:48;;;;;;;22.67;13.88;;;;;;;2.71;80.58;101210.81;5063213;28;20056;-68
2021/12/13 09:36:21;;;;;;;22.25;12.52;;;;;;;2.70;80.04;101208.28;5059219;28;20036;-69
2021/12/13 09:39:04;;;;;;;24.90;12.75;;;;;;;2.84;79.30;101200.59;5052184;28;20494;-68
2021/12/13 09:41:41;;;;;;;24.33;13.00;;;;;;;2.88;79.93;101199.53;5057388;28;20086;-68
2021/12/13 09:44:11;;;;;;;27.30;13.82;;;;;;;2.88;80.57;101200.41;5051216;28;20266;-69
2021/12/13 09:46:42;;;;;;;23.88;12.95;;;;;;;3.01;79.78;101196.31;5049721;28;20082;-69
2021/12/13 09:49:19;;;;;;;27.35;14.57;;;;;;;3.04;80.54;101192.66;5066835;28;20033;-68
2021/12/13 09:51:50;;;;;;;25.50;13.80;;;;;;;3.04;80.20;101190.88;5066397;28;20024;-67
2021/12/13 09:54:19;;;;;;;24.25;14.02;;;;;;;3.21;78.78;101190.13;5053697;28;20036;-69
2021/12/13 09:56:49;;;;;;;24.38;13.93;;;;;;;3.21;79.06;101176.88;5055061;28;20024;-69
2021/12/13 09:59:22;;;;;;;26.88;14.23;;;;;;;3.19;79.82;101178.75;5054033;28;20029;-68
2021/12/13 10:01:48;;;;;;;25.98;14.15;;;;;;;3.17;80.50;101168.22;5068521;28;20028;-67
2021/12/13 10:04:25;;;;;;;24.70;14.02;;;;;;;3.30;80.20;101176.47;5053844;28;20056;-69
2021/12/13 10:06:56;;;;;;;25.92;14.60;;;;;;;3.31;80.37;101176.41;5051530;28;20028;-69
2021/12/13 10:09:39;;;;;;;28.80;16.52;;;;;;;3.37;80.79;101178.78;5053845;28;20029;-68
2021/12/13 10:12:13;;;;;;;24.87;13.70;;;;;;;3.47;80.23;101187.19;5060800;28;20029;-69
2021/12/13 10:14:45;;;;;;;25.05;14.07;;;;;;;3.46;80.39;101172.22;5057548;28;20422;-69
2021/12/13 10:17:15;;;;;;;29.35;16.52;;;;;;;3.50;79.92;101165.84;5050569;28;20123;-70
2021/12/13 10:19:46;;;;;;;31.00;16.05;;;;;;;3.57;79.75;101172.56;5055856;28;20021;-69
2021/12/13 10:22:15;;;;;;;27.85;15.85;;;;;;;3.56;79.62;101160.25;5060426;28;20028;-68
2021/12/13 10:24:52;;;;;;;26.58;14.52;;;;;;;3.59;79.87;101149.50;5059523;28;20064;-68
2021/12/13 10:27:19;;;;;;;27.95;16.55;;;;;;;3.77;79.40;101177.84;5063623;28;20021;-70
2021/12/13 10:29:53;;;;;;;25.95;14.40;;;;;;;3.78;79.21;101172.44;5057238;28;20040;-68
2021/12/13 10:32:24;;;;;;;;;;;;;;;3.83;78.82;101174.88;5061675;28;20376;-69
2021/12/13 10:34:56;;;;;;;23.83;13.00;;;;;;;3.92;78.13;101185.06;5056022;28;19963;-70
2021/12/13 10:37:24;;;;;;;29.92;15.02;;;;;;;3.91;78.09;101178.06;5064854;28;20024;-68
2021/12/13 10:39:55;;;;;;;25.45;14.27;;;;;;;3.91;78.28;101178.06;5059412;28;20029;-69
2021/12/13 10:42:32;;;;;;;24.48;14.18;;;;;;;3.96;78.08;101174.25;5062342;28;20032;-69
2021/12/13 10:44:59;;;;;;;23.80;14.20;;;;;;;4.04;78.22;101176.53;5060622;28;20111;-69
2021/12/13 10:47:32;;;;;;;25.35;14.68;;;;;;;4.05;77.81;101176.47;5059386;28;20032;-70
2021/12/13 10:50:01;;;;;;;23.40;12.93;;;;;;;4.13;77.86;101176.13;5058038;28;20052;-70
2021/12/13 10:52:36;;;;;;;25.75;13.50;;;;;;;4.11;77.70;101164.69;5055118;28;20426;-69
2021/12/13 10:55:13;;;;;;;26.15;14.35;;;;;;;4.18;77.60;101160.81;5059885;28;20067;-69
2021/12/13 10:57:43;;;;;;;23.95;14.23;;;;;;;4.36;76.41;101171.38;5063693;28;20476;-70
2021/12/13 11:00:34;;;;;;;22.77;13.05;;;;;;;4.42;76.25;101167.59;5059341;28;20585;-69
2021/12/13 11:03:06;;;;;;;23.40;13.02;;;;;;;4.46;75.56;101155.88;5060243;28;20483;-70
2021/12/13 11:05:32;;;;;;;22.98;12.90;;;;;;;4.54;75.79;101161.66;5058441;28;20124;-70
2021/12/13 11:07:59;;;;;;;24.27;13.77;;;;;;;4.56;74.99;101162.47;5065964;28;20440;-71
2021/12/13 11:10:38;;;;;;;28.85;14.82;;;;;;;4.73;72.71;101149.19;5066664;28;20107;-70
2021/12/13 11:13:04;;;;;;;26.48;14.98;;;;;;;4.71;72.94;101151.06;5061621;28;20021;-70
2021/12/13 11:15:34;;;;;;;24.60;14.25;;;;;;;4.77;73.00;101152.56;5066910;28;20025;-70
2021/12/13 11:18:01;;;;;;;23.52;13.70;;;;;;;4.92;71.17;101149.97;5064156;28;20025;-70
2021/12/13 11:20:32;;;;;;;24.38;13.85;;;;;;;5.03;70.27;101141.44;5064435;28;20029;-70
2021/12/13 11:22:59;;;;;;;20.27;12.38;;;;;;;5.03;70.82;101146.75;5062880;28;20048;-70
2021/12/13 11:25:29;;;;;;;23.73;13.65;;;;;;;4.98;70.98;101131.03;5064434;28;20577;-69
2021/12/13 11:27:55;;;;;;;23.60;14.43;;;;;;;5.05;71.11;101131.56;5061832;28;20491;-71
2021/12/13 11:30:25;;;;;;;21.42;13.75;;;;;;;5.09;71.68;101143.78;5064210;28;20037;-70
2021/12/13 11:32:57;;;;;;;23.33;14.32;;;;;;;5.11;71.72;101137.44;5064819;28;20589;-71
2021/12/13 11:35:55;;;;;;;23.13;13.38;;;;;;;5.15;71.91;101136.31;5065396;28;20025;-71
2021/12/13 11:38:57;;;;;;;25.77;14.27;;;;;;;5.29;70.38;101143.59;5061564;28;20103;-70
2021/12/13 11:41:43;;;;;;;22.98;12.63;;;;;;;5.29;70.27;101139.09;5060303;28;20042;-69
2021/12/13 11:44:43;;;;;;;23.10;13.27;;;;;;;5.39;68.93;101136.84;5061966;28;20083;-70
2021/12/13 11:48:01;;;;;;;23.30;14.02;;;;;;;5.41;68.52;101130.47;5057722;28;20074;-69
2021/12/13 11:50:39;;;;;;;21.77;12.30;;;;;;;5.46;68.62;101127.59;5066060;28;20031;-70
2021/12/13 11:53:45;;;;;;;21.02;12.77;;;;;;;5.49;68.95;101132.75;5058779;28;20070;-70
2021/12/13 11:56:36;;;;;;;28.02;15.15;;;;;;;5.60;69.29;101128.53;5055273;28;20028;-70
2021/12/13 11:59:25;;;;;;;24.65;14.50;;;;;;;5.60;69.04;101133.88;5058521;28;20028;-71
2021/12/13 12:02:02;;;;;;;26.67;15.02;;;;;;;5.60;69.58;101127.69;5062381;28;20024;-69
2021/12/13 12:04:48;;;;;;;24.40;14.20;;;;;;;5.65;69.83;101136.28;5062860;28;20024;-70
2021/12/13 12:07:14;;;;;;;23.58;13.80;;;;;;;5.67;69.30;101123.75;5061588;28;20024;-69
2021/12/13 12:09:52;;;;;;;21.58;13.90;;;;;;;5.72;69.39;101127.88;5058542;28;20451;-70